Time;durP1;ratioP1;P1;durP2;ratioP2;P2;SDS_P1;SDS_P2;PMS_P1;PMS_P2;Temp;Humidity;BMP_temperature;BMP_pressure;BME280_temperature;BME280_humidity;BME280_pressure;Samples;Min_cycle;Max_cycle;Signal;HPM_P1;HPM_P2
2022/11/19 00:01:09;;;;;;;4.90;2.20;;;;;;;7.43;100.00;99168.28;5021475;28;20224;-61
2022/11/19 00:03:37;;;;;;;5.83;2.07;;;;;;;7.16;100.00;99179.16;5044568;28;20185;-62
2022/11/19 00:06:11;;;;;;;3.13;1.93;;;;;;;7.11;100.00;99186.25;5033367;28;20584;-61
2022/11/19 00:08:37;;;;;;;3.80;3.07;;;;;;;7.28;100.00;99187.84;5032603;28;20189;-61
2022/11/19 00:11:07;;;;;;;6.57;2.93;;;;;;;7.15;100.00;99180.03;5015025;28;20226;-62
2022/11/19 00:13:33;;;;;;;5.93;4.00;;;;;;;7.20;100.00;99184.91;5037193;28;20187;-62
2022/11/19 00:16:05;;;;;;;4.40;2.87;;;;;;;7.37;100.00;99184.81;5030282;28;20261;-64
2022/11/19 00:18:30;;;;;;;4.37;2.77;;;;;;;7.43;100.00;99178.53;5027761;28;20281;-62
2022/11/19 00:21:01;;;;;;;4.53;2.77;;;;;;;7.48;100.00;99185.91;5024060;28;20653;-61
2022/11/19 00:23:27;;;;;;;3.53;3.20;;;;;;;7.50;100.00;99184.09;5048464;28;20261;-61
2022/11/19 00:25:52;;;;;;;2.63;2.30;;;;;;;7.38;100.00;99183.91;5032712;28;20206;-62
2022/11/19 00:28:18;;;;;;;3.83;2.47;;;;;;;7.25;100.00;99191.41;5032654;28;20248;-62
2022/11/19 00:30:43;;;;;;;2.93;2.03;;;;;;;7.31;100.00;99189.44;5002472;28;20269;-63
2022/11/19 00:33:08;;;;;;;2.53;1.87;;;;;;;7.34;100.00;99182.41;5043321;28;20641;-62
2022/11/19 00:35:34;;;;;;;2.30;2.00;;;;;;;7.14;100.00;99191.19;5032578;28;20236;-62
2022/11/19 00:37:59;;;;;;;2.83;2.10;;;;;;;6.99;100.00;99187.72;5032613;28;20185;-62
2022/11/19 00:40:24;;;;;;;3.37;2.27;;;;;;;6.86;100.00;99197.81;5024518;28;20233;-62
2022/11/19 00:45:33;;;;;;;3.20;2.90;;;;;;;6.90;100.00;99208.69;5031770;28;20561;-61
2022/11/19 00:47:59;;;;;;;4.93;3.40;;;;;;;6.85;100.00;99203.81;5032934;28;20186;-62
2022/11/19 00:50:24;;;;;;;5.80;5.03;;;;;;;6.72;100.00;99213.88;5030535;28;20252;-63
2022/11/19 00:52:49;;;;;;;11.37;6.53;;;;;;;6.68;100.00;99214.94;5038498;28;20187;-62
2022/11/19 00:55:15;;;;;;;11.00;7.60;;;;;;;6.51;100.00;99215.00;5027726;28;20186;-63
2022/11/19 00:57:40;;;;;;;8.13;7.33;;;;;;;6.26;100.00;99211.97;5023031;28;20636;-63
2022/11/19 01:00:07;;;;;;;10.60;8.13;;;;;;;6.25;100.00;99220.53;5019345;28;20182;-62
2022/11/19 01:02:32;;;;;;;8.77;7.97;;;;;;;6.08;100.00;99225.69;5052691;28;20210;-61
2022/11/19 01:04:58;;;;;;;8.67;7.77;;;;;;;6.00;100.00;99215.00;5028487;28;20174;-63
2022/11/19 01:07:23;;;;;;;11.27;8.00;;;;;;;5.82;100.00;99220.09;5031397;28;20547;-61
2022/11/19 01:09:48;;;;;;;8.77;7.87;;;;;;;5.77;100.00;99217.75;5031251;28;20186;-62
2022/11/19 01:12:13;;;;;;;8.07;7.37;;;;;;;5.63;100.00;99222.69;5038257;28;20227;-62
2022/11/19 01:14:39;;;;;;;8.53;7.73;;;;;;;5.66;100.00;99223.38;5031345;28;20191;-61
2022/11/19 01:17:04;;;;;;;9.10;8.07;;;;;;;5.57;100.00;99223.84;5031398;28;20201;-61
2022/11/19 01:19:29;;;;;;;9.20;7.67;;;;;;;5.45;100.00;99229.53;5031438;28;20356;-60
2022/11/19 01:21:54;;;;;;;9.67;7.30;;;;;;;5.43;100.00;99232.16;5035736;28;20318;-61
2022/11/19 01:24:20;;;;;;;8.50;7.60;;;;;;;5.43;100.00;99232.16;5032301;28;20489;-64
2022/11/19 01:26:45;;;;;;;10.90;8.00;;;;;;;5.38;100.00;99234.06;5031202;28;20188;-61
2022/11/19 01:29:10;;;;;;;10.13;7.50;;;;;;;5.36;100.00;99238.44;5031317;28;20184;-63
2022/11/19 01:31:36;;;;;;;8.23;7.33;;;;;;;5.41;100.00;99236.50;5033654;28;20626;-62
2022/11/19 01:34:02;;;;;;;9.43;7.57;;;;;;;5.31;100.00;99237.81;5034535;28;20656;-61
2022/11/19 01:36:29;;;;;;;10.30;8.27;;;;;;;5.36;100.00;99232.50;5031070;28;20196;-62
2022/11/19 01:38:55;;;;;;;9.10;7.93;;;;;;;5.23;100.00;99234.78;5018146;28;20184;-62
2022/11/19 01:41:24;;;;;;;9.97;7.70;;;;;;;5.12;100.00;99240.38;5029838;28;20248;-62
2022/11/19 01:44:01;;;;;;;10.00;7.63;;;;;;;4.99;100.00;99240.13;5045568;28;20183;-61
2022/11/19 01:46:32;;;;;;;10.47;9.30;;;;;;;4.87;100.00;99241.50;5019859;28;20193;-61
2022/11/19 01:49:05;;;;;;;11.47;9.07;;;;;;;4.81;100.00;99237.50;5031187;28;20186;-62
2022/11/19 01:51:33;;;;;;;10.60;9.17;;;;;;;4.88;100.00;99245.69;5019918;28;20707;-63
2022/11/19 01:54:04;;;;;;;27.97;9.70;;;;;;;4.73;100.00;99252.31;5025864;28;20182;-62
2022/11/19 01:56:30;;;;;;;13.23;9.77;;;;;;;4.69;100.00;99248.25;5046142;28;20269;-63
2022/11/19 01:59:01;;;;;;;11.07;9.27;;;;;;;4.58;100.00;99245.34;5038416;28;20630;-62
2022/11/19 02:01:28;;;;;;;10.63;8.87;;;;;;;4.60;100.00;99258.81;5036159;28;20225;-61
2022/11/19 02:03:54;;;;;;;10.27;9.17;;;;;;;4.57;100.00;99251.31;5035721;28;20307;-63
2022/11/19 02:06:20;;;;;;;10.57;9.03;;;;;;;4.38;100.00;99243.63;5028879;28;20187;-61
2022/11/19 02:08:51;;;;;;;9.77;8.77;;;;;;;4.27;100.00;99239.84;5030982;28;20174;-62
2022/11/19 02:11:23;;;;;;;11.37;8.00;;;;;;;4.22;100.00;99249.38;5030144;28;20730;-61
2022/11/19 02:14:22;;;;;;;11.07;8.33;;;;;;;4.13;100.00;99257.41;5036018;28;20171;-61
2022/11/19 02:17:06;;;;;;;9.23;7.87;;;;;;;4.05;100.00;99257.72;5030696;28;20531;-61
2022/11/19 02:20:03;;;;;;;10.20;8.40;;;;;;;3.88;100.00;99263.47;5029674;28;20182;-61
2022/11/19 02:22:53;;;;;;;11.77;10.00;;;;;;;3.78;100.00;99270.66;5019563;28;20265;-61
2022/11/19 02:25:49;;;;;;;11.47;9.37;;;;;;;3.65;100.00;99266.97;5021306;28;20599;-61
2022/11/19 02:28:20;;;;;;;11.57;9.33;;;;;;;3.67;100.00;99260.94;5019502;28;20182;-61
2022/11/19 02:30:51;;;;;;;11.13;9.60;;;;;;;3.64;100.00;99266.13;5027935;28;20258;-61
2022/11/19 02:33:20;;;;;;;12.73;9.77;;;;;;;3.58;100.00;99265.53;5049913;28;20240;-61
2022/11/19 02:35:54;;;;;;;11.27;9.87;;;;;;;3.64;100.00;99266.13;5034407;28;20186;-62
2022/11/19 02:38:22;;;;;;;11.83;10.17;;;;;;;3.53;100.00;99263.19;5032786;28;20223;-61
2022/11/19 02:40:55;;;;;;;11.43;9.83;;;;;;;3.54;100.00;99267.38;5029058;28;20239;-61
2022/11/19 02:43:23;;;;;;;12.63;9.90;;;;;;;3.67;100.00;99270.25;5033034;28;20760;-62
2022/11/19 02:45:55;;;;;;;10.73;9.63;;;;;;;3.70;100.00;99270.16;5034218;28;20178;-62
2022/11/19 02:48:26;;;;;;;13.27;10.43;;;;;;;3.51;100.00;99272.56;5032238;28;20543;-62
2022/11/19 02:50:56;;;;;;;11.10;9.90;;;;;;;3.36;100.00;99277.38;5026126;28;20231;-62
2022/11/19 02:53:22;;;;;;;10.50;9.40;;;;;;;3.31;100.00;99278.41;5039216;28;20261;-63
2022/11/19 03:06:49;;;;;;;10.90;9.33;;;;;;;3.34;100.00;99283.41;5033503;28;20192;-60
2022/11/19 03:09:15;;;;;;;10.83;9.67;;;;;;;3.44;100.00;99292.31;5033909;28;20189;-60
2022/11/19 03:11:44;;;;;;;13.07;9.47;;;;;;;3.32;100.00;99293.59;5036042;28;20676;-62
2022/11/19 03:17:15;;;;;;;17.17;10.27;;;;;;;3.32;100.00;99308.03;5030774;28;20284;-62
2022/11/19 03:19:49;;;;;;;11.10;9.80;;;;;;;3.21;100.00;99303.34;5031452;28;20334;-63
2022/11/19 03:22:22;;;;;;;9.57;8.60;;;;;;;3.08;100.00;99302.97;5040167;28;20221;-61
2022/11/19 03:24:57;;;;;;;12.23;9.30;;;;;;;3.07;100.00;99308.94;5048983;28;20247;-62
2022/11/19 03:27:26;;;;;;;10.73;9.57;;;;;;;3.02;100.00;99314.19;5031751;28;20181;-62
2022/11/19 03:29:56;;;;;;;13.73;10.73;;;;;;;3.12;100.00;99317.22;5032015;28;20174;-62
2022/11/19 03:32:27;;;;;;;13.40;8.77;;;;;;;2.97;100.00;99302.53;5022631;28;20243;-63
2022/11/19 03:34:57;;;;;;;9.43;8.27;;;;;;;2.87;100.00;99313.03;5032243;28;20684;-63
2022/11/19 03:37:24;;;;;;;10.53;8.73;;;;;;;2.88;100.00;99307.06;5048048;28;20240;-63
2022/11/19 03:39:50;;;;;;;9.13;8.17;;;;;;;2.86;100.00;99303.75;5021697;28;20186;-62
2022/11/19 03:42:18;;;;;;;9.00;8.10;;;;;;;2.81;100.00;99309.88;5022682;28;20735;-63
2022/11/19 03:44:51;;;;;;;9.13;8.13;;;;;;;2.77;100.00;99300.69;5033208;28;20201;-61
2022/11/19 03:47:25;;;;;;;9.40;8.37;;;;;;;2.68;100.00;99312.00;5032646;28;20184;-63
2022/11/19 03:49:57;;;;;;;8.67;7.87;;;;;;;2.72;100.00;99316.13;5027670;28;20298;-62
2022/11/19 03:52:22;;;;;;;8.73;7.80;;;;;;;2.60;100.00;99319.06;5019745;28;20229;-62
2022/11/19 03:54:48;;;;;;;10.93;8.70;;;;;;;2.58;100.00;99319.13;5025319;28;20242;-63
2022/11/19 03:57:19;;;;;;;10.23;9.00;;;;;;;2.72;100.00;99316.13;5032400;28;20532;-62
2022/11/19 03:59:46;;;;;;;9.57;8.13;;;;;;;2.66;100.00;99317.13;5031941;28;20185;-63
2022/11/19 04:02:12;;;;;;;10.07;8.60;;;;;;;2.55;100.00;99325.13;5023914;28;20587;-63
2022/11/19 04:04:38;;;;;;;11.70;9.03;;;;;;;2.60;100.00;99321.63;5046827;28;20178;-62
2022/11/19 04:07:04;;;;;;;10.40;9.07;;;;;;;2.49;100.00;99325.31;5031000;28;20216;-62
2022/11/19 04:09:30;;;;;;;9.70;8.37;;;;;;;2.50;100.00;99327.00;5032455;28;20279;-62
2022/11/19 04:11:55;;;;;;;11.07;9.17;;;;;;;2.44;100.00;99324.66;5021071;28;20236;-62
2022/11/19 04:14:20;;;;;;;10.77;9.37;;;;;;;2.40;100.00;99330.72;5032624;28;20184;-62
2022/11/19 04:16:45;;;;;;;11.20;9.70;;;;;;;2.45;100.00;99325.50;5034930;28;20298;-63
2022/11/19 04:19:11;;;;;;;11.27;9.33;;;;;;;2.42;100.00;99332.34;5035215;28;20662;-63
2022/11/19 04:21:36;;;;;;;11.97;9.87;;;;;;;2.31;100.00;99336.94;5033245;28;20742;-63
2022/11/19 04:24:01;;;;;;;11.13;8.63;;;;;;;2.37;100.00;99331.66;5036001;28;20171;-69
2022/11/19 04:26:27;;;;;;;10.83;9.67;;;;;;;2.42;100.00;99332.34;5032075;28;20192;-63
2022/11/19 04:28:52;;;;;;;12.00;9.27;;;;;;;2.48;100.00;99328.78;5032638;28;20184;-63
2022/11/19 04:31:17;;;;;;;12.73;8.90;;;;;;;2.33;100.00;99329.25;5000922;28;20316;-63
2022/11/19 04:33:43;;;;;;;11.93;10.17;;;;;;;2.34;100.00;99338.53;5032187;28;20180;-62
2022/11/19 04:36:08;;;;;;;11.27;9.83;;;;;;;2.30;100.00;99345.44;5031750;28;20254;-62
2022/11/19 04:38:33;;;;;;;10.50;9.20;;;;;;;2.31;100.00;99347.09;5031712;28;20173;-62
2022/11/19 04:40:59;;;;;;;10.03;8.90;;;;;;;2.22;100.00;99342.28;5028624;28;20715;-63
2022/11/19 04:43:24;;;;;;;11.17;9.80;;;;;;;2.22;100.00;99355.84;5040062;28;20588;-62
2022/11/19 04:45:49;;;;;;;11.23;9.70;;;;;;;2.25;100.00;99350.66;5031573;28;20342;-62
2022/11/19 04:48:15;;;;;;;12.57;10.13;;;;;;;2.31;100.00;99349.63;5031525;28;20194;-62
2022/11/19 04:50:41;;;;;;;21.90;10.47;;;;;;;2.26;100.00;99344.69;5031234;28;20222;-60
2022/11/19 04:53:06;;;;;;;12.93;10.23;;;;;;;2.30;100.00;99347.16;5021993;28;20185;-62
2022/11/19 04:55:31;;;;;;;12.20;10.20;;;;;;;2.33;100.00;99354.66;5030024;28;20230;-61
2022/11/19 04:57:57;;;;;;;12.00;10.63;;;;;;;2.34;100.00;99358.84;5031599;28;20188;-61
2022/11/19 05:00:22;;;;;;;12.67;11.10;;;;;;;2.30;100.00;99364.91;5027266;28;20221;-61
2022/11/19 05:02:47;;;;;;;12.87;11.03;;;;;;;2.43;100.00;99363.59;5032340;28;20272;-61
2022/11/19 05:05:12;;;;;;;11.30;10.10;;;;;;;2.51;100.00;99365.91;5029541;28;20191;-62
2022/11/19 05:07:38;;;;;;;12.57;10.40;;;;;;;2.49;100.00;99360.88;5031548;28;20192;-61
2022/11/19 05:10:05;;;;;;;11.67;10.47;;;;;;;2.34;100.00;99371.53;5043564;28;20270;-61
2022/11/19 05:12:30;;;;;;;10.60;9.50;;;;;;;2.30;100.00;99365.72;5030558;28;20239;-61
2022/11/19 05:14:55;;;;;;;12.17;9.60;;;;;;;2.29;100.00;99374.22;5031368;28;20187;-63
2022/11/19 05:17:21;;;;;;;11.87;8.83;;;;;;;2.18;100.00;99374.56;5031276;28;20555;-61
2022/11/19 05:19:46;;;;;;;14.30;10.80;;;;;;;2.17;100.00;99372.91;5046625;28;20181;-61
2022/11/19 05:22:11;;;;;;;11.47;10.27;;;;;;;2.19;100.00;99378.75;5036256;28;20711;-62
2022/11/19 05:24:37;;;;;;;14.20;10.63;;;;;;;2.16;100.00;99372.94;5029866;28;20184;-61
2022/11/19 05:27:02;;;;;;;12.50;10.93;;;;;;;2.25;100.00;99368.41;5031047;28;20183;-63
2022/11/19 05:29:27;;;;;;;11.87;10.40;;;;;;;2.09;100.00;99379.94;5031160;28;20537;-62
2022/11/19 05:31:53;;;;;;;13.10;11.23;;;;;;;2.06;100.00;99372.41;5035256;28;20220;-61
2022/11/19 05:34:18;;;;;;;13.67;11.27;;;;;;;2.02;100.00;99375.91;5032892;28;20180;-61
2022/11/19 05:36:43;;;;;;;13.30;11.90;;;;;;;1.88;100.00;99383.97;5031100;28;20596;-61
2022/11/19 05:39:08;;;;;;;12.73;10.40;;;;;;;1.80;100.00;99390.94;5031041;28;20205;-62
2022/11/19 05:41:34;;;;;;;10.37;9.07;;;;;;;1.77;100.00;99396.94;5030522;28;20257;-62
2022/11/19 05:43:59;;;;;;;11.43;9.53;;;;;;;1.71;100.00;99397.97;5040884;28;20187;-62
2022/11/19 05:46:25;;;;;;;13.77;10.83;;;;;;;1.69;100.00;99398.91;5030747;28;20250;-62
2022/11/19 05:48:50;;;;;;;12.47;10.60;;;;;;;1.61;100.00;99399.09;5029932;28;20312;-61
2022/11/19 05:51:15;;;;;;;13.10;10.97;;;;;;;1.61;100.00;99399.09;5035879;28;20279;-63
2022/11/19 05:53:42;;;;;;;12.40;10.93;;;;;;;1.70;100.00;99406.44;5036716;28;20183;-63
2022/11/19 05:56:07;;;;;;;14.20;10.80;;;;;;;1.59;100.00;99404.22;5029867;28;20192;-62
2022/11/19 05:58:32;;;;;;;12.43;10.90;;;;;;;1.63;100.00;99396.53;5032809;28;20186;-62
2022/11/19 06:00:58;;;;;;;13.83;12.00;;;;;;;1.67;100.00;99409.06;5036309;28;20220;-62
2022/11/19 06:03:24;;;;;;;13.70;10.47;;;;;;;1.64;100.00;99406.63;5034755;28;20197;-62
2022/11/19 06:05:49;;;;;;;11.43;10.23;;;;;;;1.52;100.00;99399.38;5050484;28;20185;-62
2022/11/19 06:08:15;;;;;;;15.43;11.37;;;;;;;1.54;100.00;99406.06;5034133;28;20313;-65
2022/11/19 06:10:40;;;;;;;13.70;10.97;;;;;;;1.56;100.00;99406.84;5029858;28;20313;-63
2022/11/19 06:13:05;;;;;;;12.10;10.50;;;;;;;1.63;100.00;99401.63;5045333;28;20270;-62
2022/11/19 06:15:31;;;;;;;12.20;10.83;;;;;;;1.67;100.00;99408.25;5035039;28;20197;-64
2022/11/19 06:17:56;;;;;;;12.13;10.07;;;;;;;1.60;100.00;99412.66;5034428;28;20243;-64
2022/11/19 06:20:21;;;;;;;11.07;9.90;;;;;;;1.52;100.00;99412.88;5027160;28;20334;-63
2022/11/19 06:22:47;;;;;;;12.20;8.93;;;;;;;1.54;100.00;99422.97;5047496;28;20195;-63
2022/11/19 06:25:12;;;;;;;11.67;10.20;;;;;;;1.44;100.00;99420.69;5034962;28;20187;-63
2022/11/19 06:27:38;;;;;;;9.40;8.27;;;;;;;1.37;100.00;99418.38;5034290;28;20187;-63
2022/11/19 06:30:05;;;;;;;9.40;8.17;;;;;;;1.31;100.00;99421.09;5024579;28;20194;-64
2022/11/19 06:32:31;;;;;;;9.73;8.73;;;;;;;1.33;100.00;99422.69;5049133;28;20304;-62
2022/11/19 06:34:56;;;;;;;11.10;8.80;;;;;;;1.24;100.00;99420.41;5034833;28;20221;-64
2022/11/19 06:37:21;;;;;;;10.03;8.37;;;;;;;1.33;100.00;99414.25;5033955;28;20634;-63
2022/11/19 06:39:47;;;;;;;10.47;8.70;;;;;;;1.25;100.00;99425.44;5034030;28;20197;-63
2022/11/19 06:44:59;;;;;;;12.63;8.37;;;;;;;1.10;100.00;99423.31;5034622;28;20185;-63
2022/11/19 06:47:24;;;;;;;9.77;8.53;;;;;;;1.09;100.00;99429.25;5033917;28;20179;-62
2022/11/19 06:49:49;;;;;;;11.67;9.43;;;;;;;1.05;100.00;99430.19;5037798;28;20185;-64
2022/11/19 06:52:15;;;;;;;11.90;9.97;;;;;;;1.15;100.00;99431.63;5037161;28;20340;-63
2022/11/19 06:54:40;;;;;;;11.40;9.93;;;;;;;1.14;100.00;99437.53;5034789;28;20195;-62
2022/11/19 06:57:05;;;;;;;11.70;10.00;;;;;;;1.07;100.00;99436.06;5029343;28;20179;-62
2022/11/19 06:59:31;;;;;;;11.67;10.37;;;;;;;1.17;100.00;99429.06;5026204;28;20229;-63
2022/11/19 07:01:56;;;;;;;13.17;11.47;;;;;;;1.16;100.00;99435.00;5049370;28;20247;-64
2022/11/19 07:04:21;;;;;;;12.20;10.83;;;;;;;1.16;100.00;99437.53;5028081;28;20269;-63
2022/11/19 07:06:50;;;;;;;12.03;10.70;;;;;;;1.33;100.00;99448.03;5032392;28;20197;-63
2022/11/19 07:09:15;;;;;;;13.20;11.03;;;;;;;1.23;100.00;99451.69;5032889;28;20187;-61
2022/11/19 07:11:40;;;;;;;12.03;10.13;;;;;;;1.26;100.00;99444.81;5036315;28;20259;-62
2022/11/19 07:14:06;;;;;;;13.27;11.10;;;;;;;1.18;100.00;99451.81;5036604;28;20269;-62
2022/11/19 07:16:34;;;;;;;12.87;11.17;;;;;;;1.21;100.00;99454.25;5033422;28;20186;-63
2022/11/19 07:19:02;;;;;;;12.83;10.23;;;;;;;1.05;100.00;99458.88;5032559;28;20182;-61
2022/11/19 07:21:29;;;;;;;17.77;11.50;;;;;;;1.03;100.00;99462.34;5041618;28;20314;-62
2022/11/19 07:23:56;;;;;;;14.33;11.67;;;;;;;1.05;100.00;99463.13;5045857;28;20185;-62
2022/11/19 07:26:21;;;;;;;12.80;11.37;;;;;;;1.07;100.00;99456.34;5031831;28;20670;-63
2022/11/19 07:28:47;;;;;;;13.67;11.77;;;;;;;1.10;100.00;99462.16;5033668;28;20261;-62
2022/11/19 07:31:12;;;;;;;15.03;12.77;;;;;;;1.05;100.00;99460.59;5032477;28;20244;-63
2022/11/19 07:33:38;;;;;;;12.60;11.07;;;;;;;0.95;100.00;99454.94;5032472;28;20170;-63
2022/11/19 07:36:08;;;;;;;14.10;12.30;;;;;;;1.08;100.00;99465.56;5033098;28;20536;-62
2022/11/19 07:38:35;;;;;;;14.43;12.20;;;;;;;1.04;100.00;99469.91;5033320;28;20224;-63
2022/11/19 07:41:00;;;;;;;13.67;11.17;;;;;;;1.04;100.00;99474.13;5041037;28;20240;-63
2022/11/19 07:43:25;;;;;;;14.20;11.90;;;;;;;0.99;100.00;99491.97;5021296;28;20560;-62
2022/11/19 07:45:51;;;;;;;14.67;11.57;;;;;;;0.89;100.00;99490.53;5031963;28;20269;-62
2022/11/19 07:48:16;;;;;;;14.40;12.17;;;;;;;0.99;100.00;99488.63;5032014;28;20637;-66
2022/11/19 07:50:41;;;;;;;13.20;10.67;;;;;;;0.92;100.00;99498.91;5031262;28;20289;-64
2022/11/19 07:53:08;;;;;;;14.47;12.33;;;;;;;0.93;100.00;99494.66;5044228;28;20186;-64
2022/11/19 07:55:33;;;;;;;13.70;11.63;;;;;;;0.92;100.00;99506.50;5048728;28;20178;-62
2022/11/19 07:57:59;;;;;;;15.80;13.07;;;;;;;0.84;100.00;99498.25;5021365;28;20537;-62
2022/11/19 08:00:24;;;;;;;14.93;11.50;;;;;;;0.85;100.00;99504.16;5003136;28;20223;-62
2022/11/19 08:02:50;;;;;;;15.90;12.40;;;;;;;0.92;100.00;99509.03;5039669;28;20696;-62
2022/11/19 08:05:15;;;;;;;15.77;11.23;;;;;;;0.92;100.00;99515.81;5032723;28;20649;-62
2022/11/19 08:07:41;;;;;;;16.93;12.47;;;;;;;0.91;100.00;99516.66;5031004;28;20178;-62
2022/11/19 08:10:08;;;;;;;13.07;11.37;;;;;;;0.85;100.00;99519.34;5037594;28;20212;-64
2022/11/19 08:12:33;;;;;;;14.67;12.53;;;;;;;0.83;100.00;99523.59;5031557;28;20261;-63
2022/11/19 08:14:58;;;;;;;17.43;13.10;;;;;;;0.84;100.00;99518.50;5032704;28;20281;-63
2022/11/19 08:20:08;;;;;;;15.77;12.50;;;;;;;0.87;100.00;99520.13;5023639;28;20651;-66
2022/11/19 08:22:35;;;;;;;18.03;12.70;;;;;;;0.87;100.00;99528.56;5030791;28;20206;-62
2022/11/19 08:25:02;;;;;;;14.87;12.57;;;;;;;0.77;100.00;99527.94;5032582;28;20186;-63
2022/11/19 08:27:27;;;;;;;16.03;13.03;;;;;;;0.71;100.00;99533.16;5031499;28;20182;-63
2022/11/19 08:29:53;;;;;;;15.23;12.43;;;;;;;0.70;100.00;99531.50;5032900;28;20178;-64
2022/11/19 08:32:18;;;;;;;15.90;12.23;;;;;;;0.72;100.00;99536.50;5000107;28;20701;-63
2022/11/19 08:34:43;;;;;;;15.90;13.30;;;;;;;0.70;100.00;99544.16;5032264;28;20198;-63
2022/11/19 08:37:12;;;;;;;15.80;13.23;;;;;;;0.62;100.00;99540.94;5031794;28;20657;-62
2022/11/19 08:39:38;;;;;;;15.87;12.57;;;;;;;0.54;100.00;99543.66;5031272;28;20644;-63
2022/11/19 08:44:47;;;;;;;16.70;13.03;;;;;;;0.23;100.00;99539.25;5031452;28;20192;-63
2022/11/19 08:47:13;;;;;;;16.73;13.93;;;;;;;0.13;100.00;99540.31;5031618;28;20613;-64
2022/11/19 08:49:38;;;;;;;17.27;13.10;;;;;;;0.05;100.00;99547.22;5034023;28;20209;-63
2022/11/19 08:52:03;;;;;;;16.23;13.40;;;;;;;-0.01;100.00;99551.53;5040078;28;20219;-64
2022/11/19 08:54:29;;;;;;;20.60;12.87;;;;;;;-0.05;100.00;99549.09;5032343;28;20182;-64
2022/11/19 08:56:54;;;;;;;17.63;14.00;;;;;;;-0.08;100.00;99544.94;5031521;28;20212;-65
2022/11/19 08:59:20;;;;;;;19.23;13.70;;;;;;;-0.08;100.00;99551.72;5032071;28;20186;-65
2022/11/19 09:01:46;;;;;;;16.20;12.63;;;;;;;-0.28;100.00;99552.91;5046009;28;20676;-65
2022/11/19 09:04:11;;;;;;;21.17;13.30;;;;;;;-0.38;100.00;99544.66;5039668;28;20181;-64
2022/11/19 09:06:37;;;;;;;17.23;13.00;;;;;;;-0.29;100.00;99556.28;5031571;28;20174;-65
2022/11/19 09:09:03;;;;;;;16.50;12.30;;;;;;;-0.26;100.00;99561.31;5032009;28;20651;-65
2022/11/19 09:11:28;;;;;;;16.23;12.43;;;;;;;-0.20;100.00;99556.13;5023748;28;20233;-65
2022/11/19 09:13:56;;;;;;;19.30;12.83;;;;;;;-0.11;100.00;99556.81;5036430;28;20193;-65
2022/11/19 09:16:22;;;;;;;16.07;12.53;;;;;;;-0.15;100.00;99562.78;5031097;28;20186;-63
2022/11/19 09:18:48;;;;;;;16.17;11.93;;;;;;;-0.21;100.00;99567.09;5031930;28;20523;-62
2022/11/19 09:21:13;;;;;;;14.47;11.80;;;;;;;-0.17;100.00;99565.34;5023353;28;20530;-62
2022/11/19 09:23:41;;;;;;;16.93;12.03;;;;;;;-0.14;100.00;99567.00;5037996;28;20206;-62
2022/11/19 09:26:12;;;;;;;17.20;12.53;;;;;;;0.01;100.00;99575.97;5046618;28;20181;-64
2022/11/19 09:28:38;;;;;;;13.70;11.27;;;;;;;0.09;100.00;99574.97;5030526;28;20189;-63
2022/11/19 09:31:14;;;;;;;13.57;11.23;;;;;;;0.17;100.00;99574.81;5024991;28;20218;-62
2022/11/19 09:33:42;;;;;;;14.00;11.60;;;;;;;0.20;100.00;99586.53;5030571;28;20264;-62
2022/11/19 09:36:09;;;;;;;13.63;11.10;;;;;;;0.30;100.00;99585.53;5029945;28;20206;-62
2022/11/19 09:38:35;;;;;;;12.53;8.87;;;;;;;0.37;100.00;99598.88;5029815;28;20178;-62
2022/11/19 09:41:16;;;;;;;13.97;10.20;;;;;;;0.42;100.00;99597.91;5027649;28;20233;-63
2022/11/19 09:43:57;;;;;;;11.17;9.80;;;;;;;0.30;100.00;99604.03;5037281;28;20192;-63
2022/11/19 09:46:49;;;;;;;14.00;9.43;;;;;;;0.55;100.00;99608.59;5029764;28;20190;-64
2022/11/19 09:49:29;;;;;;;12.50;10.67;;;;;;;0.73;100.00;99599.78;5031335;28;20206;-63
2022/11/19 09:52:04;;;;;;;10.80;8.87;;;;;;;0.87;100.00;99602.00;5035587;28;20217;-66
2022/11/19 09:54:30;;;;;;;11.27;9.53;;;;;;;0.87;100.00;99606.22;5031640;28;20174;-64
2022/11/19 09:57:01;;;;;;;10.03;7.97;;;;;;;0.89;100.00;99607.84;5029585;28;20197;-64
2022/11/19 09:59:28;;;;;;;7.80;6.93;;;;;;;1.02;100.00;99602.50;5046636;28;20170;-64
2022/11/19 10:01:54;;;;;;;8.80;7.90;;;;;;;0.88;100.00;99610.41;5046896;28;20628;-64
2022/11/19 10:04:30;;;;;;;10.90;7.97;;;;;;;0.94;100.00;99601.00;5032362;28;20178;-64
2022/11/19 10:07:05;;;;;;;8.40;7.50;;;;;;;0.82;100.00;99603.81;5046441;28;20221;-63
2022/11/19 10:10:01;;;;;;;8.27;7.37;;;;;;;0.84;100.00;99604.59;5030138;28;20177;-64
2022/11/19 10:12:45;;;;;;;11.07;8.23;;;;;;;0.99;100.00;99603.41;4995488;28;20592;-64
2022/11/19 10:15:15;;;;;;;8.73;7.83;;;;;;;0.91;100.00;99600.25;5031212;28;20205;-65
2022/11/19 10:18:04;;;;;;;9.30;8.30;;;;;;;0.98;100.00;99603.44;5030569;28;20190;-64
2022/11/19 10:21:00;;;;;;;10.03;8.33;;;;;;;0.93;100.00;99601.00;5010290;28;20230;-64
2022/11/19 10:23:44;;;;;;;11.70;8.43;;;;;;;1.06;100.00;99602.41;5019462;28;20178;-65
2022/11/19 10:26:15;;;;;;;11.10;9.20;;;;;;;0.96;100.00;99595.91;5030845;28;20214;-64
2022/11/19 10:28:47;;;;;;;10.73;8.77;;;;;;;0.98;100.00;99594.16;5030867;28;20182;-64
2022/11/19 10:31:38;;;;;;;9.20;8.23;;;;;;;1.04;100.00;99595.72;5020257;28;20230;-66
2022/11/19 10:34:12;;;;;;;9.07;8.17;;;;;;;1.10;100.00;99593.03;5032456;28;20202;-66
2022/11/19 10:36:44;;;;;;;10.47;8.50;;;;;;;1.03;100.00;99586.44;5035798;28;20671;-67
2022/11/19 10:39:23;;;;;;;11.03;9.23;;;;;;;1.21;100.00;99586.00;5048843;28;20181;-65
2022/11/19 10:42:17;;;;;;;9.87;8.30;;;;;;;1.22;100.00;99590.22;5038745;28;20233;-65
2022/11/19 10:44:53;;;;;;;9.90;8.57;;;;;;;1.25;100.00;99589.28;5031519;28;20193;-66
2022/11/19 10:47:33;;;;;;;9.30;8.07;;;;;;;1.27;100.00;99595.16;5045909;28;20220;-66
2022/11/19 10:49:58;;;;;;;11.63;9.10;;;;;;;1.23;100.00;99601.19;5027547;28;20220;-67
2022/11/19 10:52:38;;;;;;;12.40;9.43;;;;;;;1.16;100.00;99592.06;5029858;28;20276;-66
2022/11/19 10:55:24;;;;;;;11.20;9.07;;;;;;;1.18;100.00;99605.50;5039563;28;20192;-65
2022/11/19 10:58:14;;;;;;;10.20;9.10;;;;;;;1.37;100.00;99608.44;5031888;28;20217;-64
2022/11/19 11:00:41;;;;;;;10.53;8.90;;;;;;;1.49;100.00;99605.63;5029877;28;20283;-64
2022/11/19 11:03:24;;;;;;;11.20;10.00;;;;;;;1.43;100.00;99604.03;5002347;28;988349;-64
2022/11/19 11:09:04;;;;;;;12.83;10.23;;;;;;;1.25;100.00;99597.75;5097022;27;20572;-63
2022/11/19 11:17:04;;;;;;;9.47;8.47;;;;;;;1.34;100.00;99593.31;5059812;28;20204;-63
2022/11/19 11:19:31;;;;;;;10.90;9.80;;;;;;;1.31;100.00;99583.25;4973931;28;985967;-62
2022/11/19 11:21:56;;;;;;;12.57;11.27;;;;;;;1.29;100.00;99575.69;4668852;28;988540;-64
2022/11/19 11:24:31;;;;;;;19.87;13.03;;;;;;;1.21;100.00;99582.66;5059944;28;20246;-62
2022/11/19 11:27:42;;;;;;;11.40;9.67;;;;;;;1.29;100.00;99583.31;5048960;28;20208;-63
2022/11/19 11:30:10;;;;;;;10.13;8.97;;;;;;;1.24;100.00;99596.06;5055384;28;20182;-62
2022/11/19 11:32:36;;;;;;;11.30;9.17;;;;;;;1.21;100.00;99596.13;5057186;28;20183;-62
2022/11/19 11:35:01;;;;;;;11.27;9.97;;;;;;;1.16;100.00;99603.03;5066444;28;20344;-63
2022/11/19 11:37:27;;;;;;;13.23;10.83;;;;;;;1.30;100.00;99600.16;5055683;28;20260;-64
2022/11/19 11:39:54;;;;;;;13.20;10.47;;;;;;;1.31;100.00;99593.41;5061530;28;20234;-62
2022/11/19 11:42:22;;;;;;;12.80;9.93;;;;;;;1.37;100.00;99588.19;5040156;28;20217;-60
2022/11/19 11:44:51;;;;;;;13.07;11.43;;;;;;;2.09;100.00;99588.78;5064380;28;20174;-61
2022/11/19 11:47:20;;;;;;;12.33;10.70;;;;;;;2.14;100.00;99590.41;5060215;28;20175;-62
2022/11/19 11:49:55;;;;;;;12.40;10.70;;;;;;;1.96;100.00;99591.72;5046772;28;20201;-62
2022/11/19 11:52:38;;;;;;;13.20;10.97;;;;;;;1.67;100.00;99589.09;5046361;28;20256;-63
2022/11/19 11:55:06;;;;;;;15.13;13.73;;;;;;;1.75;100.00;99593.97;5053338;28;20579;-62
2022/11/19 11:57:48;;;;;;;15.17;12.20;;;;;;;1.66;100.00;99601.81;5062389;28;20206;-64
2022/11/19 12:00:37;;;;;;;16.73;15.17;;;;;;;1.52;100.00;99586.97;4999208;28;1004409;-64
2022/11/19 12:03:18;;;;;;;17.63;15.85;;;;;;;1.70;100.00;99589.03;5018436;28;21308;-65